Time;durP1;ratioP1;P1;durP2;ratioP2;P2;SDS_P1;SDS_P2;PMS_P1;PMS_P2;Temp;Humidity;BMP_temperature;BMP_pressure;BME280_temperature;BME280_humidity;BME280_pressure;Samples;Min_cycle;Max_cycle;Signal;HPM_P1;HPM_P2
2022/07/16 00:03:35;;;;;;;5.22;2.58;;;;;;;14.19;84.56;101947.28;5240088;28;20041;-65
2022/07/16 00:06:07;;;;;;;5.15;2.55;;;;;;;14.24;83.76;101947.75;5237637;28;20376;-66
2022/07/16 00:08:38;;;;;;;5.40;2.80;;;;;;;14.31;83.54;101949.03;5237500;28;20406;-65
2022/07/16 00:11:09;;;;;;;6.68;2.70;;;;;;;14.40;84.14;101950.19;5237262;28;20722;-66
2022/07/16 00:13:41;;;;;;;4.18;2.55;;;;;;;14.43;81.96;101949.09;5239793;28;20328;-65
2022/07/16 00:16:13;;;;;;;5.10;2.72;;;;;;;14.50;83.73;101953.03;5235139;28;20061;-65
2022/07/16 00:21:34;;;;;;;5.47;2.72;;;;;;;14.46;83.51;101951.56;5237881;28;20060;-65
2022/07/16 00:24:07;;;;;;;5.40;2.90;;;;;;;14.44;83.07;101951.66;5235004;28;20144;-65
2022/07/16 00:26:39;;;;;;;6.85;3.45;;;;;;;14.35;80.91;101956.88;5234946;28;20028;-65
2022/07/16 00:29:11;;;;;;;6.57;3.30;;;;;;;14.28;80.92;101961.81;5236851;28;20028;-65
2022/07/16 00:31:42;;;;;;;4.63;2.97;;;;;;;14.27;80.63;101968.19;5229823;28;20126;-65
2022/07/16 00:34:14;;;;;;;4.65;3.00;;;;;;;14.24;80.97;101963.88;5236865;28;20029;-66
2022/07/16 00:36:46;;;;;;;5.63;2.63;;;;;;;14.22;81.57;101960.44;5235174;28;20073;-66
2022/07/16 00:39:18;;;;;;;5.57;3.47;;;;;;;14.23;81.63;101951.44;5233619;28;20605;-65
2022/07/16 00:41:49;;;;;;;6.32;3.38;;;;;;;14.24;81.89;101957.66;5229117;28;20033;-67
2022/07/16 00:44:21;;;;;;;5.90;2.80;;;;;;;14.28;82.16;101959.97;5230253;28;20028;-66
2022/07/16 00:46:52;;;;;;;5.35;3.13;;;;;;;14.33;82.26;101962.34;5229083;28;20033;-66
2022/07/16 00:49:23;;;;;;;6.80;3.15;;;;;;;14.45;85.28;101952.50;5232096;28;20028;-65
2022/07/16 00:51:54;;;;;;;5.93;2.75;;;;;;;14.44;83.74;101950.78;5226098;28;20503;-66
2022/07/16 00:54:26;;;;;;;5.13;2.97;;;;;;;14.48;81.23;101955.81;5247063;28;20466;-65
2022/07/16 00:56:57;;;;;;;4.93;2.70;;;;;;;14.52;81.47;101953.78;5234864;28;20043;-65
2022/07/16 00:59:28;;;;;;;7.22;2.90;;;;;;;14.56;80.69;101960.63;5228352;28;20035;-66
2022/07/16 01:02:00;;;;;;;7.88;2.83;;;;;;;14.59;81.13;101956.84;5232403;28;20446;-66
2022/07/16 01:04:31;;;;;;;5.50;3.03;;;;;;;14.62;80.85;101959.31;5231212;28;20060;-65
2022/07/16 01:07:03;;;;;;;6.80;3.40;;;;;;;14.65;80.66;101951.03;5239283;28;20036;-65
2022/07/16 01:09:35;;;;;;;6.30;2.80;;;;;;;14.68;80.25;101954.31;5239260;28;20032;-65
2022/07/16 01:12:07;;;;;;;7.05;3.05;;;;;;;14.73;81.32;101958.50;5236429;28;20047;-66
2022/07/16 01:14:39;;;;;;;6.22;3.10;;;;;;;14.73;80.14;101948.63;5237481;28;20029;-66
2022/07/16 01:17:11;;;;;;;6.35;3.20;;;;;;;14.78;81.14;101948.25;5238923;28;20580;-65
2022/07/16 01:19:42;;;;;;;7.97;3.58;;;;;;;14.79;80.30;101948.16;5243182;28;20039;-65
2022/07/16 01:22:19;;;;;;;5.78;3.65;;;;;;;14.80;80.12;101946.31;5238671;28;20103;-66
2022/07/16 01:24:51;;;;;;;6.10;2.92;;;;;;;14.89;79.66;101942.91;5240633;28;20655;-66
2022/07/16 01:27:22;;;;;;;7.32;3.05;;;;;;;14.87;81.24;101940.34;5239581;28;20340;-65
2022/07/16 01:29:53;;;;;;;6.00;2.63;;;;;;;14.84;79.92;101942.41;5242358;28;20465;-65
2022/07/16 01:32:24;;;;;;;6.43;2.75;;;;;;;14.82;79.73;101933.59;5241761;28;20458;-64
2022/07/16 01:34:56;;;;;;;5.85;2.67;;;;;;;14.81;80.41;101945.34;5244887;28;20401;-64
2022/07/16 01:37:27;;;;;;;5.30;3.10;;;;;;;14.82;79.48;101952.41;5238046;28;20025;-65
2022/07/16 01:39:58;;;;;;;6.50;2.90;;;;;;;14.78;79.14;101949.09;5240845;28;20418;-65
2022/07/16 01:42:29;;;;;;;7.18;2.92;;;;;;;14.79;79.89;101947.31;5233472;28;20383;-65
2022/07/16 01:45:01;;;;;;;4.97;2.53;;;;;;;14.76;79.59;101959.13;5229457;28;20035;-66
2022/07/16 01:47:32;;;;;;;4.22;2.83;;;;;;;14.86;80.22;101959.25;5230211;28;20053;-65
2022/07/16 01:50:04;;;;;;;6.90;2.70;;;;;;;14.76;79.15;101959.13;5237008;28;20395;-65
2022/07/16 01:52:35;;;;;;;6.80;3.05;;;;;;;14.77;79.09;101954.63;5233551;28;20037;-66
2022/07/16 01:55:07;;;;;;;5.28;2.72;;;;;;;14.75;79.24;101956.56;5245344;28;20074;-66
2022/07/16 01:57:38;;;;;;;4.40;2.70;;;;;;;14.73;79.68;101961.19;5242064;28;20822;-65
2022/07/16 02:00:10;;;;;;;6.93;2.92;;;;;;;14.70;79.49;101952.38;5238563;28;20108;-65
2022/07/16 02:02:41;;;;;;;5.88;3.05;;;;;;;14.75;79.24;101948.50;5240342;28;20513;-65
2022/07/16 02:05:13;;;;;;;5.88;3.03;;;;;;;14.75;79.34;101953.88;5249541;28;20028;-66
2022/07/16 02:07:44;;;;;;;6.78;3.38;;;;;;;14.70;78.99;101941.63;5239714;28;20076;-66
2022/07/16 02:10:16;;;;;;;6.63;3.05;;;;;;;14.73;78.86;101947.75;5245192;28;20027;-65
2022/07/16 02:12:47;;;;;;;6.68;3.08;;;;;;;14.75;79.61;101937.75;5243146;28;20047;-66
2022/07/16 02:15:19;;;;;;;6.57;3.50;;;;;;;14.84;79.96;101942.41;5240852;28;20158;-66
2022/07/16 02:17:50;;;;;;;5.82;3.40;;;;;;;14.80;79.01;101943.63;5241004;28;20032;-66
2022/07/16 02:20:21;;;;;;;5.45;3.60;;;;;;;14.80;79.19;101938.25;5241227;28;20789;-65
2022/07/16 02:22:55;;;;;;;9.65;3.80;;;;;;;14.79;79.18;101937.41;5241903;28;20078;-66
2022/07/16 02:25:26;;;;;;;6.38;3.80;;;;;;;14.81;79.04;101938.13;5246730;28;21712;-66
2022/07/16 02:28:06;;;;;;;4.45;3.10;;;;;;;14.83;79.42;101935.34;5245485;28;20021;-66
2022/07/16 02:30:41;;;;;;;7.68;3.60;;;;;;;14.87;78.90;101939.50;5244452;28;20082;-66
2022/07/16 02:33:14;;;;;;;6.18;3.70;;;;;;;14.85;79.42;101931.53;5248763;28;20411;-66
2022/07/16 02:35:46;;;;;;;11.07;3.85;;;;;;;14.89;78.96;101937.53;5245627;28;20029;-65
2022/07/16 02:38:17;;;;;;;6.22;4.03;;;;;;;14.93;80.21;101932.78;5240372;28;20479;-66
2022/07/16 02:40:49;;;;;;;6.38;3.60;;;;;;;14.90;79.53;101937.44;5247071;28;20349;-65
2022/07/16 02:43:20;;;;;;;8.32;3.53;;;;;;;14.94;79.73;101939.88;5246303;28;20016;-65
2022/07/16 02:45:51;;;;;;;7.82;4.10;;;;;;;14.91;78.86;101932.91;5238390;28;20865;-66
2022/07/16 02:48:23;;;;;;;5.15;3.95;;;;;;;14.91;79.00;101935.59;5239693;28;20025;-65
2022/07/16 02:50:54;;;;;;;6.03;4.00;;;;;;;14.90;79.13;101933.91;5240732;28;20032;-65
2022/07/16 02:53:25;;;;;;;7.57;4.30;;;;;;;14.87;78.47;101924.22;5242479;28;20109;-66
2022/07/16 02:55:57;;;;;;;6.63;4.32;;;;;;;14.86;78.42;101929.72;5243634;28;20031;-66
2022/07/16 02:58:28;;;;;;;7.38;3.88;;;;;;;14.81;78.81;101935.44;5241080;28;21424;-65
2022/07/16 03:01:00;;;;;;;8.77;4.50;;;;;;;14.82;79.05;101933.59;5241844;28;20044;-66
2022/07/16 03:03:31;;;;;;;7.72;4.30;;;;;;;14.79;78.83;101936.56;5244357;28;20036;-66
2022/07/16 03:06:02;;;;;;;7.72;4.32;;;;;;;14.80;79.27;101938.25;5245169;28;20155;-66
2022/07/16 03:08:34;;;;;;;7.32;4.32;;;;;;;14.80;78.99;101932.88;5242911;28;20051;-66
2022/07/16 03:11:05;;;;;;;8.50;4.88;;;;;;;14.80;79.45;101939.09;5242414;28;20152;-65
2022/07/16 03:13:36;;;;;;;7.68;4.68;;;;;;;14.81;79.26;101942.66;5250264;28;20035;-66
2022/07/16 03:16:08;;;;;;;8.10;4.68;;;;;;;14.93;80.18;101949.75;5245612;28;20467;-66
2022/07/16 03:18:39;;;;;;;8.75;4.68;;;;;;;14.82;79.22;101947.03;5247925;28;20487;-65
2022/07/16 03:21:10;;;;;;;7.35;4.60;;;;;;;14.82;78.76;101939.88;5239848;28;20033;-65
2022/07/16 03:23:41;;;;;;;7.63;4.30;;;;;;;14.84;79.05;101950.47;5227462;28;20044;-65
2022/07/16 03:26:13;;;;;;;6.03;4.60;;;;;;;14.80;79.08;101939.09;5238044;28;20022;-65
2022/07/16 03:28:44;;;;;;;6.10;4.68;;;;;;;14.86;79.21;101943.13;5244357;28;20699;-65
2022/07/16 03:31:17;;;;;;;7.22;4.63;;;;;;;14.86;79.24;101951.19;5244340;28;20114;-66
2022/07/16 03:33:48;;;;;;;7.82;4.47;;;;;;;14.86;78.92;101949.41;5239127;28;20406;-66
2022/07/16 03:36:19;;;;;;;10.35;5.13;;;;;;;14.85;79.16;101953.03;5239085;28;20044;-66
2022/07/16 03:41:38;;;;;;;6.78;4.68;;;;;;;14.87;78.71;101963.69;5240167;28;20514;-65
2022/07/16 03:44:11;;;;;;;7.20;4.88;;;;;;;14.85;79.38;101957.56;5240211;28;20029;-66
2022/07/16 03:46:43;;;;;;;8.43;5.10;;;;;;;14.92;80.55;101957.94;5243656;28;20076;-66
2022/07/16 03:49:14;;;;;;;9.82;5.18;;;;;;;14.87;80.33;101963.69;5235724;28;20086;-65
2022/07/16 03:51:45;;;;;;;9.75;5.05;;;;;;;14.85;80.30;101965.63;5231399;28;20071;-65
2022/07/16 03:54:16;;;;;;;9.38;5.53;;;;;;;14.85;80.59;101963.78;5241849;28;20056;-66
2022/07/16 03:56:48;;;;;;;11.23;5.57;;;;;;;14.87;81.09;101969.91;5237817;28;20029;-65
2022/07/16 03:59:19;;;;;;;8.52;5.43;;;;;;;14.90;80.96;101968.81;5229017;28;20025;-65
2022/07/16 04:01:50;;;;;;;8.63;5.30;;;;;;;14.90;81.28;101977.75;5241506;28;20061;-65
2022/07/16 04:04:22;;;;;;;10.55;5.53;;;;;;;14.93;81.72;101973.94;5230670;28;20031;-66
2022/07/16 04:06:53;;;;;;;8.25;5.38;;;;;;;14.95;81.61;101977.38;5233103;28;20021;-66
2022/07/16 04:09:24;;;;;;;8.80;5.32;;;;;;;14.97;82.18;101978.09;5232317;28;20028;-66
2022/07/16 04:11:55;;;;;;;9.55;6.38;;;;;;;14.97;82.77;101986.16;5242863;28;20029;-66
2022/07/16 04:14:27;;;;;;;8.63;5.45;;;;;;;14.98;82.96;101981.69;5232333;28;20025;-65
2022/07/16 04:16:58;;;;;;;8.15;5.40;;;;;;;15.01;82.75;101992.16;5233164;28;20479;-66
2022/07/16 04:19:29;;;;;;;10.18;5.80;;;;;;;15.01;83.51;101987.66;5231302;28;20203;-65
2022/07/16 04:22:01;;;;;;;7.55;5.05;;;;;;;15.00;84.04;101985.09;5231881;28;20033;-66
2022/07/16 04:24:32;;;;;;;8.57;5.97;;;;;;;15.03;84.18;101996.47;5231197;28;20617;-65
2022/07/16 04:27:03;;;;;;;10.20;6.30;;;;;;;15.09;85.06;101990.63;5248569;28;20021;-66
2022/07/16 04:29:35;;;;;;;8.30;5.60;;;;;;;15.05;85.36;101989.16;5231748;28;20368;-65
2022/07/16 04:32:06;;;;;;;10.73;5.50;;;;;;;15.09;85.54;102001.38;5243112;28;20471;-65
2022/07/16 04:34:38;;;;;;;8.30;5.90;;;;;;;15.06;86.17;101993.53;5242269;28;20525;-66
2022/07/16 04:37:09;;;;;;;10.02;6.07;;;;;;;15.04;87.12;101990.09;5234622;28;20057;-66
2022/07/16 04:39:40;;;;;;;7.45;6.35;;;;;;;15.02;87.26;101997.44;5246258;28;20033;-65
2022/07/16 04:42:12;;;;;;;9.85;6.20;;;;;;;14.99;88.09;101999.50;5244243;28;20136;-66
2022/07/16 04:44:43;;;;;;;9.70;6.20;;;;;;;14.95;89.01;101998.88;5234638;28;20778;-66
2022/07/16 04:47:14;;;;;;;13.68;6.50;;;;;;;14.99;89.35;102000.34;5240263;28;20491;-66
2022/07/16 04:49:46;;;;;;;9.00;6.47;;;;;;;15.01;90.05;102003.78;5230545;28;20036;-66
2022/07/16 04:52:17;;;;;;;9.43;6.10;;;;;;;15.01;91.07;102005.59;5235337;28;20060;-66
2022/07/16 04:54:48;;;;;;;10.68;6.60;;;;;;;15.00;91.40;102003.91;5236263;28;20116;-65
2022/07/16 04:57:20;;;;;;;10.88;6.90;;;;;;;15.07;92.90;102005.13;5236523;28;20528;-65
2022/07/16 04:59:51;;;;;;;10.40;6.43;;;;;;;15.06;94.62;102009.66;5234639;28;20464;-65
2022/07/16 05:05:13;;;;;;;9.77;5.50;;;;;;;15.12;96.85;102013.72;5235910;28;20037;-65
2022/07/16 05:07:44;;;;;;;8.82;5.63;;;;;;;15.16;96.94;102025.09;5236173;28;20065;-66
2022/07/16 05:10:16;;;;;;;10.07;5.30;;;;;;;15.21;98.19;102013.00;5237404;28;20067;-66
2022/07/16 05:12:48;;;;;;;11.00;5.43;;;;;;;15.24;98.30;102017.28;5245652;28;20167;-65
2022/07/16 05:15:20;;;;;;;9.10;5.13;;;;;;;15.31;99.24;102026.59;5235170;28;20147;-65
2022/07/16 05:17:51;;;;;;;9.32;5.18;;;;;;;15.34;99.97;102031.75;5236123;28;20472;-65
2022/07/16 05:20:23;;;;;;;8.90;5.03;;;;;;;15.40;100.00;102031.25;5236423;28;20029;-66
2022/07/16 05:22:54;;;;;;;11.50;5.03;;;;;;;15.43;100.00;102027.47;5244015;28;20025;-66
2022/07/16 05:25:26;;;;;;;8.52;4.63;;;;;;;15.46;100.00;102037.97;5235519;28;20503;-66
2022/07/16 05:27:57;;;;;;;12.73;5.70;;;;;;;15.54;100.00;102043.63;5240313;28;20032;-66
2022/07/16 05:30:28;;;;;;;9.40;5.25;;;;;;;15.56;100.00;102038.13;5236301;28;20381;-66
2022/07/16 05:33:00;;;;;;;8.63;5.20;;;;;;;15.58;100.00;102034.31;5241687;28;20028;-65
2022/07/16 05:35:32;;;;;;;11.13;5.95;;;;;;;15.64;100.00;102043.75;5237663;28;20037;-65
2022/07/16 05:38:03;;;;;;;8.65;5.40;;;;;;;15.72;100.00;102049.38;5239826;28;20033;-66
2022/07/16 05:40:34;;;;;;;8.38;5.22;;;;;;;15.77;100.00;102035.59;5242181;28;20023;-65
2022/07/16 05:43:06;;;;;;;7.20;4.88;;;;;;;15.84;100.00;102036.81;5242449;28;20063;-65
2022/07/16 05:45:37;;;;;;;7.15;4.43;;;;;;;15.89;100.00;102037.28;5233740;28;20112;-65
2022/07/16 05:48:08;;;;;;;7.38;4.07;;;;;;;16.01;100.00;102038.13;5241318;28;20021;-65
2022/07/16 05:50:40;;;;;;;7.95;4.50;;;;;;;16.06;100.00;102046.72;5241835;28;20123;-65
2022/07/16 05:53:11;;;;;;;9.07;4.45;;;;;;;16.15;100.00;102048.66;5238589;28;20041;-66
2022/07/16 05:55:42;;;;;;;9.40;4.25;;;;;;;16.25;100.00;102044.22;5241572;28;20029;-65
2022/07/16 05:58:13;;;;;;;6.13;3.53;;;;;;;16.33;100.00;102049.00;5242316;28;20064;-66
2022/07/16 06:00:45;;;;;;;7.22;3.72;;;;;;;16.33;100.00;102043.59;5237229;28;20029;-66
2022/07/16 06:03:16;;;;;;;6.57;3.55;;;;;;;16.38;100.00;102051.31;5238244;28;20039;-66
2022/07/16 06:05:47;;;;;;;7.15;3.40;;;;;;;16.41;100.00;102057.28;5238464;28;20028;-66
2022/07/16 06:08:18;;;;;;;7.95;3.20;;;;;;;16.52;100.00;102063.66;5243917;28;20116;-66
2022/07/16 06:10:50;;;;;;;6.13;2.70;;;;;;;16.66;100.00;102074.13;5241285;28;20399;-65
2022/07/16 06:13:21;;;;;;;6.03;2.58;;;;;;;16.74;98.65;102076.19;5238830;28;20399;-66
2022/07/16 06:15:52;;;;;;;7.65;2.65;;;;;;;16.75;96.03;102084.16;5237089;28;20064;-66
2022/07/16 06:18:24;;;;;;;9.27;2.20;;;;;;;16.84;94.09;102080.72;5240907;28;20032;-65
2022/07/16 06:20:55;;;;;;;6.50;2.00;;;;;;;16.94;93.13;102088.91;5240258;28;20363;-65
2022/07/16 06:23:26;;;;;;;3.60;1.60;;;;;;;16.97;91.96;102083.25;5234339;28;20121;-65
2022/07/16 06:25:57;;;;;;;5.43;1.83;;;;;;;17.14;89.73;102091.75;5236838;28;20028;-65
2022/07/16 06:28:29;;;;;;;3.90;1.60;;;;;;;17.16;89.36;102090.66;5240050;28;20051;-65
2022/07/16 06:31:00;;;;;;;5.40;1.60;;;;;;;17.21;89.20;102101.03;5239414;28;20032;-65
2022/07/16 06:33:31;;;;;;;6.00;1.73;;;;;;;17.26;89.02;102096.13;5233994;28;20398;-66
2022/07/16 06:36:05;;;;;;;4.10;1.67;;;;;;;17.33;87.59;102099.16;5235034;28;20021;-67
2022/07/16 06:38:36;;;;;;;4.15;1.48;;;;;;;17.41;87.77;102105.59;5245409;28;20032;-65
2022/07/16 06:41:08;;;;;;;5.32;1.92;;;;;;;17.34;86.81;102104.41;5237374;28;20033;-66
2022/07/16 06:43:39;;;;;;;5.70;1.73;;;;;;;17.43;87.00;102109.03;5240818;28;20090;-65
2022/07/16 06:46:10;;;;;;;6.88;2.00;;;;;;;17.49;86.91;102104.94;5241006;28;20531;-66
2022/07/16 06:48:42;;;;;;;3.78;1.40;;;;;;;17.52;85.77;102111.91;5243333;28;20029;-65
2022/07/16 06:51:13;;;;;;;4.10;1.60;;;;;;;17.77;85.06;102107.94;5238852;28;20455;-65
2022/07/16 06:53:44;;;;;;;5.88;1.50;;;;;;;17.79;83.98;102106.81;5239495;28;20226;-65
2022/07/16 06:56:15;;;;;;;3.05;1.20;;;;;;;17.76;81.55;102109.78;5240892;28;20040;-66
2022/07/16 06:58:47;;;;;;;3.75;1.48;;;;;;;17.97;80.88;102114.34;5234868;28;20040;-65
2022/07/16 07:01:18;;;;;;;2.65;1.17;;;;;;;17.92;78.90;102124.69;5234635;28;21006;-66
2022/07/16 07:03:50;;;;;;;4.65;1.33;;;;;;;17.94;78.37;102118.16;5238931;28;20029;-66
2022/07/16 07:06:22;;;;;;;4.85;1.60;;;;;;;18.04;78.15;102129.00;5238332;28;20036;-66
2022/07/16 07:08:53;;;;;;;5.80;1.30;;;;;;;18.09;77.55;102137.56;5239881;28;20387;-66
2022/07/16 07:11:24;;;;;;;5.30;1.27;;;;;;;18.23;74.89;102144.44;5239529;28;20067;-66
2022/07/16 07:13:56;;;;;;;3.50;1.25;;;;;;;18.30;74.42;102145.63;5243211;28;20391;-66
2022/07/16 07:16:27;;;;;;;2.75;0.90;;;;;;;18.35;73.24;102153.31;5243819;28;20036;-66
2022/07/16 07:18:58;;;;;;;3.78;0.85;;;;;;;18.37;69.15;102144.09;5236429;28;20104;-65
2022/07/16 07:21:30;;;;;;;3.13;1.15;;;;;;;18.49;69.60;102155.66;5242463;28;20029;-65
2022/07/16 07:24:01;;;;;;;3.67;1.35;;;;;;;18.60;69.43;102146.56;5248277;28;20082;-66
2022/07/16 07:26:32;;;;;;;4.07;0.95;;;;;;;18.55;67.42;102156.94;5237630;28;20187;-66
2022/07/16 07:29:05;;;;;;;4.72;1.17;;;;;;;18.73;65.65;102157.13;5229694;28;20607;-66
2022/07/16 07:31:36;;;;;;;5.13;0.90;;;;;;;18.77;66.55;102155.84;5229057;28;20040;-65
2022/07/16 07:34:07;;;;;;;2.60;0.80;;;;;;;18.84;67.09;102164.31;5230780;28;20024;-65
2022/07/16 07:36:38;;;;;;;2.85;0.98;;;;;;;18.84;65.56;102154.34;5231783;28;20060;-65
2022/07/16 07:39:10;;;;;;;3.17;0.98;;;;;;;18.90;65.09;102161.88;5231305;28;20029;-66
2022/07/16 07:41:41;;;;;;;4.47;1.00;;;;;;;18.98;65.00;102161.19;5238903;28;20039;-66
2022/07/16 07:44:12;;;;;;;3.58;1.02;;;;;;;19.08;63.97;102158.50;5237233;28;20086;-65
2022/07/16 07:46:44;;;;;;;4.65;1.00;;;;;;;18.99;63.10;102165.63;5233361;28;20584;-65
2022/07/16 07:49:15;;;;;;;4.10;1.00;;;;;;;18.92;62.92;102169.88;5234840;28;20546;-65
2022/07/16 07:51:46;;;;;;;2.90;0.80;;;;;;;18.75;62.94;102177.63;5228287;28;20116;-65
2022/07/16 07:54:17;;;;;;;3.65;1.20;;;;;;;18.90;62.84;102177.28;5238326;28;20036;-65
2022/07/16 07:56:49;;;;;;;3.53;1.00;;;;;;;19.06;63.47;102174.88;5236617;28;20037;-66
2022/07/16 07:59:20;;;;;;;2.65;0.98;;;;;;;18.99;63.40;102174.56;5228412;28;20475;-66
2022/07/16 08:01:52;;;;;;;5.13;1.15;;;;;;;19.06;63.84;102174.00;5229983;28;20091;-66
2022/07/16 08:04:24;;;;;;;4.80;1.23;;;;;;;19.13;64.63;102173.31;5235155;28;20044;-66
2022/07/16 08:06:55;;;;;;;3.45;1.27;;;;;;;19.19;62.35;102180.00;5239143;28;20358;-65
2022/07/16 08:09:26;;;;;;;4.80;1.15;;;;;;;19.07;63.80;102183.84;5240204;28;20059;-68
2022/07/16 08:11:58;;;;;;;4.50;0.93;;;;;;;19.23;63.50;102178.72;5250281;28;20021;-66
2022/07/16 08:14:29;;;;;;;4.07;1.05;;;;;;;19.40;63.64;102188.84;5241665;28;20314;-65
2022/07/16 08:17:01;;;;;;;9.45;1.38;;;;;;;19.37;62.77;102194.56;5242625;28;20269;-65
2022/07/16 08:19:33;;;;;;;4.63;1.20;;;;;;;19.49;64.80;102189.00;5245410;28;20124;-65
2022/07/16 08:22:04;;;;;;;3.28;1.10;;;;;;;19.53;63.40;102198.53;5243571;28;20037;-65
2022/07/16 08:27:25;;;;;;;4.00;1.20;;;;;;;19.48;61.33;102203.50;5249038;28;20037;-65
2022/07/16 08:29:57;;;;;;;3.13;1.30;;;;;;;19.49;60.77;102203.38;5252146;28;20033;-65
2022/07/16 08:32:28;;;;;;;3.33;1.20;;;;;;;19.50;61.35;102210.50;5254835;28;20013;-65
2022/07/16 08:34:59;;;;;;;4.20;1.00;;;;;;;19.54;59.88;102211.06;5247157;28;20079;-64
2022/07/16 08:37:36;;;;;;;3.75;0.90;;;;;;;19.54;59.92;102213.75;5237756;28;21621;-64
2022/07/16 08:40:14;;;;;;;4.30;1.10;;;;;;;19.54;59.18;102221.88;5237509;28;20486;-64
2022/07/16 08:42:46;;;;;;;5.05;1.08;;;;;;;19.39;58.47;102225.03;5244937;28;20029;-64
2022/07/16 08:45:20;;;;;;;3.38;1.00;;;;;;;19.48;59.15;102223.31;5246508;28;20525;-65
2022/07/16 08:47:52;;;;;;;4.70;1.05;;;;;;;19.70;58.57;102222.19;5245751;28;20547;-65
2022/07/16 08:50:24;;;;;;;3.08;1.08;;;;;;;19.71;58.65;102225.72;5245920;28;20032;-64
2022/07/16 08:52:57;;;;;;;4.85;1.13;;;;;;;19.84;58.79;102230.91;5241861;28;20396;-64
2022/07/16 08:55:29;;;;;;;3.63;1.10;;;;;;;19.86;58.29;102231.59;5249679;28;20032;-64
2022/07/16 08:58:00;;;;;;;6.97;1.27;;;;;;;20.18;58.34;102233.97;5250634;28;20021;-64
2022/07/16 09:00:32;;;;;;;3.20;1.10;;;;;;;20.13;56.62;102245.22;5250809;28;20110;-65
2022/07/16 09:03:04;;;;;;;3.08;1.20;;;;;;;19.98;55.92;102243.97;5253593;28;20055;-65
2022/07/16 09:05:35;;;;;;;3.35;1.17;;;;;;;20.15;56.50;102243.25;5250757;28;20078;-65
2022/07/16 09:08:07;;;;;;;4.25;1.50;;;;;;;20.24;56.14;102246.94;5255030;28;20039;-64
2022/07/16 09:10:38;;;;;;;3.45;0.90;;;;;;;20.48;54.74;102246.44;5250858;28;20375;-64
2022/07/16 09:13:11;;;;;;;4.47;1.10;;;;;;;20.44;55.46;102247.75;5253597;28;20025;-66
2022/07/16 09:15:43;;;;;;;4.35;1.10;;;;;;;20.27;55.74;102251.19;5249454;28;20040;-66
2022/07/16 09:18:18;;;;;;;3.78;1.10;;;;;;;20.32;54.53;102244.31;5253505;28;20111;-66
2022/07/16 09:20:57;;;;;;;3.08;1.05;;;;;;;20.42;55.57;102246.16;5251858;28;20032;-66
2022/07/16 09:23:37;;;;;;;5.28;1.27;;;;;;;20.28;54.23;102259.19;5253603;28;20107;-65
2022/07/16 09:26:10;;;;;;;5.82;1.15;;;;;;;20.52;54.15;102249.72;5252416;28;20041;-66
2022/07/16 09:28:47;;;;;;;3.50;0.98;;;;;;;20.77;52.11;102253.63;5252102;28;20872;-66
2022/07/16 09:31:31;;;;;;;4.43;1.00;;;;;;;20.94;52.46;102252.81;5249339;28;20024;-66
2022/07/16 09:34:19;;;;;;;4.78;1.10;;;;;;;20.75;51.53;102255.63;5253230;28;20040;-65
2022/07/16 09:37:03;;;;;;;3.42;1.30;;;;;;;20.59;51.63;102263.50;5252780;28;20036;-64
2022/07/16 09:39:35;;;;;;;3.65;1.50;;;;;;;20.45;51.61;102259.44;5249136;28;20021;-65
2022/07/16 09:42:07;;;;;;;4.25;1.20;;;;;;;20.42;52.19;102257.84;5251744;28;20032;-65
2022/07/16 09:44:42;;;;;;;3.25;0.90;;;;;;;20.55;51.55;102263.81;5252998;28;20029;-66
2022/07/16 09:47:14;;;;;;;3.95;1.15;;;;;;;20.83;51.96;102257.59;5250137;28;20036;-65
2022/07/16 09:49:55;;;;;;;3.40;0.82;;;;;;;20.91;51.36;102274.81;5251483;28;20066;-65
2022/07/16 09:52:29;;;;;;;3.40;1.17;;;;;;;20.97;51.41;102280.66;5250875;28;20074;-65
2022/07/16 09:55:02;;;;;;;3.42;1.00;;;;;;;21.00;50.71;102277.63;5247904;28;20028;-65
2022/07/16 09:57:34;;;;;;;2.63;1.02;;;;;;;20.55;50.79;102276.50;5252920;28;20069;-65
2022/07/16 10:00:09;;;;;;;4.18;1.00;;;;;;;20.84;51.09;102281.84;5253164;28;20104;-65
2022/07/16 10:02:42;;;;;;;4.43;0.90;;;;;;;20.92;50.24;102287.41;5247751;28;20053;-65
2022/07/16 10:05:13;;;;;;;5.00;1.10;;;;;;;21.16;49.88;102291.41;5248615;28;20012;-65
2022/07/16 10:07:45;;;;;;;4.70;1.10;;;;;;;20.95;49.11;102283.50;5249067;28;20036;-65
2022/07/16 10:10:16;;;;;;;4.85;1.00;;;;;;;21.13;48.80;102287.16;5252074;28;20025;-65
2022/07/16 10:12:48;;;;;;;3.05;0.80;;;;;;;21.18;49.17;102289.38;5242149;28;20033;-65
2022/07/16 10:15:20;;;;;;;3.20;0.80;;;;;;;21.10;47.70;102287.44;5252644;28;20037;-65
2022/07/16 10:17:52;;;;;;;6.30;1.10;;;;;;;21.09;46.24;102293.00;5252764;28;20033;-66
2022/07/16 10:20:23;;;;;;;2.88;0.88;;;;;;;21.17;46.31;102298.56;5247920;28;20658;-66
2022/07/16 10:22:54;;;;;;;3.30;1.02;;;;;;;21.18;46.91;102293.97;5252153;28;20228;-65
2022/07/16 10:25:27;;;;;;;4.85;0.80;;;;;;;21.25;46.53;102300.50;5255632;28;20029;-65
2022/07/16 10:27:58;;;;;;;3.42;1.00;;;;;;;21.38;47.17;102300.13;5252925;28;20047;-65
2022/07/16 10:30:30;;;;;;;3.53;1.08;;;;;;;21.31;47.06;102314.31;5252638;28;20081;-66
2022/07/16 10:33:10;;;;;;;3.92;1.00;;;;;;;21.40;47.23;102303.53;5253358;28;20431;-65
2022/07/16 10:35:47;;;;;;;3.80;0.82;;;;;;;21.67;46.91;102299.94;5255169;28;20039;-65
2022/07/16 10:38:24;;;;;;;3.40;0.80;;;;;;;21.91;47.39;102300.16;5251606;28;20029;-66
2022/07/16 10:41:13;;;;;;;3.47;0.88;;;;;;;21.98;46.65;102308.56;5249918;28;20253;-66
2022/07/16 10:44:08;;;;;;;4.38;1.23;;;;;;;21.75;44.22;102308.19;5252108;28;20240;-65
2022/07/16 10:47:00;;;;;;;2.97;0.82;;;;;;;21.63;45.42;102304.84;5253790;28;20021;-66
2022/07/16 10:49:32;;;;;;;5.82;0.98;;;;;;;21.80;44.40;102308.56;5253040;28;20064;-66
2022/07/16 10:52:09;;;;;;;3.88;1.17;;;;;;;21.80;44.97;102315.84;5254265;28;20113;-66
2022/07/16 10:54:49;;;;;;;2.75;1.00;;;;;;;21.80;45.20;102322.13;5251394;28;20036;-66
2022/07/16 10:57:36;;;;;;;3.67;1.23;;;;;;;21.70;46.67;102305.91;5252108;28;20039;-66
2022/07/16 11:00:08;;;;;;;3.33;0.85;;;;;;;21.77;45.66;102321.63;5251710;28;20616;-67
2022/07/16 11:02:41;;;;;;;3.60;0.90;;;;;;;21.65;45.02;102315.53;5253182;28;20055;-66
2022/07/16 11:05:13;;;;;;;3.17;0.85;;;;;;;21.47;45.29;102313.66;5253025;28;20041;-66
2022/07/16 11:07:44;;;;;;;4.95;1.00;;;;;;;21.79;46.00;102319.59;5252074;28;20384;-66
2022/07/16 11:10:16;;;;;;;4.70;1.02;;;;;;;21.92;45.89;102320.91;5248991;28;20064;-66
2022/07/16 11:12:47;;;;;;;2.97;1.00;;;;;;;21.79;46.24;102312.28;5245961;28;20033;-66
2022/07/16 11:15:18;;;;;;;3.08;0.82;;;;;;;21.91;47.34;102315.63;5243486;28;20426;-66
2022/07/16 11:17:55;;;;;;;6.85;1.45;;;;;;;21.71;47.18;102325.81;5242335;28;20026;-65
2022/07/16 11:20:34;;;;;;;5.35;1.60;;;;;;;21.54;47.21;102324.78;5246623;28;20028;-66
2022/07/16 11:23:06;;;;;;;2.58;0.70;;;;;;;21.80;46.55;102324.84;5252942;28;20028;-65
2022/07/16 11:25:53;;;;;;;3.47;1.10;;;;;;;21.79;44.31;102325.88;5244617;28;20040;-66
2022/07/16 11:28:24;;;;;;;3.00;1.00;;;;;;;22.28;45.73;102320.03;5250622;28;20017;-65
2022/07/16 11:31:00;;;;;;;4.32;1.10;;;;;;;22.46;45.34;102330.88;5252478;28;20570;-65
2022/07/16 11:33:35;;;;;;;5.45;1.00;;;;;;;22.19;45.72;102331.84;5248427;28;20064;-66
2022/07/16 11:36:08;;;;;;;4.72;1.25;;;;;;;22.07;45.73;102337.53;5248838;28;20123;-65
2022/07/16 11:38:40;;;;;;;4.30;0.80;;;;;;;22.02;43.61;102333.56;5251421;28;20098;-65
2022/07/16 11:41:12;;;;;;;3.58;1.10;;;;;;;21.82;44.56;102341.00;5252834;28;20473;-65
2022/07/16 11:43:43;;;;;;;3.30;0.98;;;;;;;21.81;45.74;102323.84;5249277;28;20056;-64
2022/07/16 11:46:23;;;;;;;3.30;1.00;;;;;;;21.70;46.19;102332.22;5248900;28;20061;-64
2022/07/16 11:48:55;;;;;;;5.57;1.10;;;;;;;21.85;45.55;102329.84;5247512;28;20490;-64
2022/07/16 11:51:28;;;;;;;3.50;0.98;;;;;;;22.14;45.11;102324.13;5250613;28;20031;-64
2022/07/16 11:53:59;;;;;;;4.15;1.30;;;;;;;22.06;44.46;102327.66;5253071;28;20064;-64
2022/07/16 11:56:38;;;;;;;3.40;1.15;;;;;;;21.83;44.26;102331.84;5252817;28;20068;-64
2022/07/16 11:59:26;;;;;;;3.33;0.90;;;;;;;21.71;44.63;102329.38;5248614;28;20076;-64
2022/07/16 12:01:58;;;;;;;3.67;0.90;;;;;;;21.96;45.33;102326.88;5248281;28;20048;-64